Enderlin, ND

11:29 PM CDT on July 27, 2014 (GMT -0500)
RAWS SHEYENNE ND US (MSNGN8) Elev 1069 ft | 46.47 °N, 97.32 °W | Change Station

Current weather conditions updated 40 minutes ago

Mostly Cloudy
Mostly Cloudy
60 °F
Feels Like 60 °F
N
2
Wind Variable Wind from North
Gusts 4.0 mph

Tomorrow is forecast to be Warmer than today.

Today
High -- | Low -- °F
--% Chance of Precip.
Yesterday
High -- | Low -- °F
Precip. -- in
6:05 AM 9:08 PM
New Moon, 1% visible
Pressure 30.24 in
Visibility 10.0 miles
Clouds Mostly Cloudy 4900 ft
Dew Point 55 °F
Humidity 84%
Rainfall 0.00 in
Snow Depth Not available.
UV 0 out of 12
Pollen 7.50 out of 12
Air Quality Not available.
Flu Activity Not available.
METAR KGWR 280415Z AUTO 32005KT 10SM BKN049 16/14 A3024 RMK A01 P000

More Conditions Fewer Conditions

Pressure 30.24 in
Visibility 10.0 miles
Clouds Mostly Cloudy 4900 ft
Dew Point 55 °F
Humidity 84%
Rainfall 0.00 in
Snow Depth Not available.
UV 0 out of 12
Pollen 7.50 out of 12
Air Quality Not available.
Flu Activity Not available.
METAR KGWR 280415Z AUTO 32005KT 10SM BKN049 16/14 A3024 RMK A01 P000

More Conditions Fewer Conditions

10-Day Weather Forecast

Almanac

Astronomy

Jul. 27, 2014 Rise Set
Actual Time 6:05 AM CDT 9:08 PM CDT
Civil Twilight 5:29 AM CDT 9:43 PM CDT
Nautical Twilight 4:42 AM CDT 10:29 PM CDT
Astronomical Twilight 3:46 AM CDT 11:25 PM CDT
Moon 6:59 AM CDT (7/27) 9:09 PM CDT (7/27)
Length of Visible Light 16h 14m
Length of Day
15h 03m
Tomorrow will be 2m 24s shorter.
New Moon, 1% of the Moon is Illuminated
Jul 28
New Moon
Aug 3
First Quarter
Aug 10
Full
Aug 17
Last Quarter
Aug 25
New

Today's Extremes

State Highs State Lows

Community

WunderPhotos

Upload Photos

1,738,300 photos uploaded!

Nearby

Snow Depth

Station Depth Elevation
No new snow has been reported.

Earthquake Activity

City Distance Mag. Time & Date
No recent earthquake activity has been reported nearby.
Minimum magnitude displayed is 2.5.

Coastal Water Temperatures

Place Temperature
No Stations Reporting

Nearby Weather Stations

Station Location Temp. Dew Point Humidity Wind Precip. Elev Updated Type
RAWS SHEYENNE ND, Sheldon, ND 60 °F 55 °F 84% North  at  2 mph 0.00 in / hr 1069 ft 10:49 PM CDT MADIS

Show More Stations Show Fewer Stations